createdAt,value
2018-07-21T00:00:37.227Z,7.33
2018-07-21T00:03:06.995Z,7.23
2018-07-21T00:05:36.269Z,6.47
2018-07-21T00:08:05.770Z,6.37
2018-07-21T00:10:35.105Z,6.90
2018-07-21T00:13:04.511Z,6.03
2018-07-21T00:15:33.866Z,6.60
2018-07-21T00:18:03.210Z,6.87
2018-07-21T00:20:32.562Z,6.70
2018-07-21T00:23:01.864Z,6.60
2018-07-21T00:25:31.643Z,7.20
2018-07-21T00:28:00.975Z,7.00
2018-07-21T00:30:30.291Z,6.10
2018-07-21T00:32:59.695Z,7.10
2018-07-21T00:35:28.997Z,6.93
2018-07-21T00:37:58.382Z,6.63
2018-07-21T00:40:27.694Z,7.13
2018-07-21T00:42:57.095Z,6.80
2018-07-21T00:45:26.398Z,6.60
2018-07-21T00:47:56.042Z,7.10
2018-07-21T00:50:25.354Z,7.07
2018-07-21T00:52:54.671Z,7.40
2018-07-21T00:55:23.994Z,7.13
2018-07-21T00:57:53.314Z,8.17
2018-07-21T01:00:22.980Z,7.60
2018-07-21T01:02:52.336Z,7.33
2018-07-21T01:05:21.638Z,7.67
2018-07-21T01:07:50.966Z,7.60
2018-07-21T01:10:20.609Z,7.07
2018-07-21T01:12:49.891Z,6.87
2018-07-21T01:15:19.195Z,6.20
2018-07-21T01:17:48.763Z,6.83
2018-07-21T01:20:18.104Z,6.93
2018-07-21T01:22:47.418Z,6.90
2018-07-21T01:25:16.522Z,6.97
2018-07-21T01:27:45.796Z,8.47
2018-07-21T01:30:15.110Z,8.10
2018-07-21T01:32:44.290Z,8.43
2018-07-21T01:35:13.560Z,8.63
2018-07-21T01:37:42.810Z,7.37
2018-07-21T01:40:12.114Z,7.73
2018-07-21T01:42:41.389Z,8.03
2018-07-21T01:45:10.736Z,7.73
2018-07-21T01:47:40.048Z,7.90
2018-07-21T01:50:09.328Z,7.67
2018-07-21T01:52:38.645Z,7.27
2018-07-21T01:55:08.392Z,8.23
2018-07-21T01:57:37.702Z,7.00
2018-07-21T02:00:07.030Z,8.80
2018-07-21T02:02:36.352Z,7.13
2018-07-21T02:05:07.012Z,7.77
2018-07-21T02:07:36.361Z,7.17
2018-07-21T02:10:05.651Z,7.30
2018-07-21T02:12:35.007Z,8.13
2018-07-21T02:15:04.272Z,8.13
2018-07-21T02:17:33.919Z,7.40
2018-07-21T02:20:03.196Z,7.83
2018-07-21T02:22:32.571Z,8.43
2018-07-21T02:25:01.861Z,7.87
2018-07-21T02:27:31.638Z,7.77
2018-07-21T02:30:00.953Z,7.10
2018-07-21T02:32:30.403Z,8.47
2018-07-21T02:34:59.715Z,7.37
2018-07-21T02:37:28.993Z,7.50
2018-07-21T02:39:58.471Z,6.90
2018-07-21T02:42:27.813Z,8.43
2018-07-21T02:44:57.083Z,8.60
2018-07-21T02:47:26.451Z,7.77
2018-07-21T02:49:55.780Z,7.97
2018-07-21T02:52:25.111Z,8.30
2018-07-21T02:54:54.460Z,7.53
2018-07-21T02:57:23.802Z,8.33
2018-07-21T02:59:53.102Z,8.67
2018-07-21T03:02:22.498Z,8.70
2018-07-21T03:04:51.769Z,7.87
2018-07-21T03:07:21.094Z,8.30
2018-07-21T03:09:50.515Z,8.37
2018-07-21T03:12:19.864Z,7.80
2018-07-21T03:14:49.194Z,8.63
2018-07-21T03:17:18.523Z,7.40
2018-07-21T03:19:47.871Z,8.60
2018-07-21T03:22:17.173Z,7.67
2018-07-21T03:24:46.621Z,7.93
2018-07-21T03:27:15.894Z,8.17
2018-07-21T03:29:45.217Z,7.90
2018-07-21T03:32:14.495Z,7.80
2018-07-21T03:34:43.795Z,7.53
2018-07-21T03:37:13.159Z,8.27
2018-07-21T03:39:42.507Z,8.50
2018-07-21T03:42:12.233Z,8.30
2018-07-21T03:44:41.511Z,7.73
2018-07-21T03:47:11.188Z,7.63
2018-07-21T03:49:40.643Z,7.00
2018-07-21T03:52:09.930Z,7.10
2018-07-21T03:54:39.279Z,8.70
2018-07-21T03:57:08.620Z,7.30
2018-07-21T03:59:37.939Z,8.10
2018-07-21T04:02:07.263Z,7.70
2018-07-21T04:04:36.566Z,6.80
2018-07-21T04:07:06.076Z,7.37
2018-07-21T04:09:35.997Z,7.47
2018-07-21T04:12:05.383Z,8.27
2018-07-21T04:14:34.655Z,7.83
2018-07-21T04:17:04.074Z,7.50
2018-07-21T04:19:33.388Z,7.37
2018-07-21T04:22:02.731Z,8.03
2018-07-21T04:24:32.106Z,7.57
2018-07-21T04:27:01.401Z,7.33
2018-07-21T04:29:30.854Z,7.60
2018-07-21T04:32:00.560Z,7.90
2018-07-21T04:34:29.905Z,7.27
2018-07-21T04:36:59.268Z,8.80
2018-07-21T04:39:28.688Z,7.33
2018-07-21T04:41:58.006Z,8.73
2018-07-21T04:44:27.342Z,8.80
2018-07-21T04:46:56.693Z,7.70
2018-07-21T04:49:26.126Z,7.57
2018-07-21T04:51:55.431Z,8.10
2018-07-21T04:54:25.310Z,7.43
2018-07-21T04:56:54.636Z,7.23
2018-07-21T04:59:23.943Z,7.10
2018-07-21T05:01:53.319Z,7.87
2018-07-21T05:04:22.653Z,6.93
2018-07-21T05:06:52.042Z,7.20
2018-07-21T05:09:21.391Z,6.60
2018-07-21T05:11:50.439Z,6.77
2018-07-21T05:14:19.725Z,6.60
2018-07-21T05:16:49.599Z,7.30
2018-07-21T05:19:18.950Z,7.20
2018-07-21T05:21:48.302Z,7.10
2018-07-21T05:24:17.710Z,7.07
2018-07-21T05:26:47.045Z,7.67
2018-07-21T05:29:16.386Z,6.60
2018-07-21T05:31:45.750Z,7.27
2018-07-21T05:34:15.052Z,6.90
2018-07-21T05:36:44.383Z,6.67
2018-07-21T05:39:14.192Z,6.50
2018-07-21T05:41:43.424Z,6.70
2018-07-21T05:44:12.722Z,6.27
2018-07-21T05:46:42.064Z,5.90
2018-07-21T05:49:11.357Z,6.50
2018-07-21T05:51:40.667Z,7.27
2018-07-21T05:54:10.002Z,6.67
2018-07-21T05:56:39.301Z,6.30
2018-07-21T05:59:08.631Z,7.03
2018-07-21T06:01:38.151Z,6.10
2018-07-21T06:04:07.512Z,7.10
2018-07-21T06:06:36.827Z,6.80
2018-07-21T06:09:09.165Z,6.13
2018-07-21T06:11:38.578Z,7.00
2018-07-21T06:14:07.939Z,7.23
2018-07-21T06:16:37.029Z,7.30
2018-07-21T06:19:06.290Z,7.60
2018-07-21T06:21:35.611Z,6.60
2018-07-21T06:24:05.328Z,7.33
2018-07-21T06:26:34.617Z,5.53
2018-07-21T06:29:03.895Z,5.90
2018-07-21T06:31:33.198Z,5.87
2018-07-21T06:34:02.634Z,5.50
2018-07-21T06:36:31.919Z,5.37
2018-07-21T06:39:01.215Z,5.47
2018-07-21T06:41:30.515Z,5.03
2018-07-21T06:44:00.033Z,5.93
2018-07-21T06:46:29.520Z,5.70
2018-07-21T06:48:58.913Z,5.23
2018-07-21T06:51:28.214Z,5.30
2018-07-21T06:53:57.526Z,5.30
2018-07-21T06:56:26.844Z,5.17
2018-07-21T06:58:56.172Z,5.20
2018-07-21T07:01:25.489Z,5.50
2018-07-21T07:03:54.823Z,5.60
2018-07-21T07:06:24.201Z,4.43
2018-07-21T07:08:54.010Z,5.07
2018-07-21T07:11:23.351Z,4.50
2018-07-21T07:13:52.631Z,5.20
2018-07-21T07:16:21.988Z,5.50
2018-07-21T07:18:51.268Z,5.10
2018-07-21T07:21:20.612Z,5.10
2018-07-21T07:23:49.953Z,4.77
2018-07-21T07:26:19.422Z,5.00
2018-07-21T07:28:48.988Z,4.97
2018-07-21T07:31:18.843Z,4.80
2018-07-21T07:33:48.202Z,4.63
2018-07-21T07:36:17.459Z,4.43
2018-07-21T07:38:46.744Z,4.30
2018-07-21T07:41:16.038Z,4.37
2018-07-21T07:43:45.374Z,5.10
2018-07-21T07:46:14.705Z,4.73
2018-07-21T07:48:44.039Z,4.50
2018-07-21T07:51:13.338Z,4.60
2018-07-21T07:53:42.517Z,4.90
2018-07-21T07:56:11.807Z,4.23
2018-07-21T07:58:41.077Z,4.80
2018-07-21T08:01:10.447Z,4.30
2018-07-21T08:03:39.712Z,5.10
2018-07-21T08:06:09.077Z,4.80
2018-07-21T08:08:38.405Z,4.57
2018-07-21T08:11:07.688Z,3.93
2018-07-21T08:13:37.145Z,4.63
2018-07-21T08:16:06.565Z,4.17
2018-07-21T08:18:35.881Z,4.37
2018-07-21T08:21:05.190Z,4.50
2018-07-21T08:23:34.751Z,4.23
2018-07-21T08:26:04.087Z,4.07
2018-07-21T08:28:33.361Z,4.33
2018-07-21T08:31:02.760Z,5.27
2018-07-21T08:33:32.056Z,4.07
2018-07-21T08:36:01.390Z,3.80
2018-07-21T08:38:30.895Z,4.10
2018-07-21T08:41:00.196Z,3.93
2018-07-21T08:43:29.476Z,4.53
2018-07-21T08:45:58.823Z,4.00
2018-07-21T08:48:28.155Z,4.23
2018-07-21T08:50:57.499Z,4.23
2018-07-21T08:53:26.816Z,3.70
2018-07-21T08:55:56.175Z,4.40
2018-07-21T08:58:25.502Z,4.37
2018-07-21T09:00:54.964Z,3.83
2018-07-21T09:03:24.537Z,3.90
2018-07-21T09:05:53.938Z,4.00
2018-07-21T09:08:23.319Z,4.83
2018-07-21T09:10:52.610Z,4.67
2018-07-21T09:13:21.955Z,4.60
2018-07-21T09:15:51.435Z,5.27
2018-07-21T09:18:20.720Z,4.90
2018-07-21T09:20:50.032Z,4.20
2018-07-21T09:23:19.523Z,4.20
2018-07-21T09:25:48.818Z,4.37
2018-07-21T09:28:18.117Z,4.20
2018-07-21T09:30:47.425Z,4.47
2018-07-21T09:33:16.746Z,4.53
2018-07-21T09:35:46.430Z,5.30
2018-07-21T09:38:15.747Z,5.40
2018-07-21T09:40:45.024Z,7.20
2018-07-21T09:43:14.256Z,4.80
2018-07-21T09:45:44.166Z,5.50
2018-07-21T09:48:13.544Z,5.43
2018-07-21T09:50:45.955Z,4.77
2018-07-21T09:53:15.036Z,5.00
2018-07-21T09:55:44.436Z,5.07
2018-07-21T09:58:13.719Z,5.07
2018-07-21T10:00:48.382Z,5.30
2018-07-21T10:03:17.716Z,5.70
2018-07-21T10:05:47.101Z,5.77
2018-07-21T10:08:16.409Z,5.77
2018-07-21T10:10:45.838Z,5.50
2018-07-21T10:13:15.147Z,5.47
2018-07-21T10:15:44.605Z,5.33
2018-07-21T10:18:13.958Z,5.83
2018-07-21T10:20:43.367Z,5.20
2018-07-21T10:23:12.949Z,5.60
2018-07-21T10:25:47.495Z,6.03
2018-07-21T10:28:22.270Z,5.80
2018-07-21T10:30:51.538Z,5.03
2018-07-21T10:33:21.039Z,5.53
2018-07-21T10:35:50.198Z,6.60
2018-07-21T10:38:19.532Z,5.47
2018-07-21T10:40:49.078Z,5.20
2018-07-21T10:43:18.685Z,6.00
2018-07-21T10:45:47.946Z,5.60
2018-07-21T10:48:17.323Z,5.90
2018-07-21T10:50:46.743Z,6.30
2018-07-21T10:53:16.047Z,5.83
2018-07-21T10:55:45.357Z,5.90
2018-07-21T10:58:14.659Z,5.90
2018-07-21T11:00:44.049Z,5.70
2018-07-21T11:03:13.399Z,5.90
2018-07-21T11:05:42.846Z,5.53
2018-07-21T11:08:12.723Z,5.90
2018-07-21T11:10:42.193Z,6.10
2018-07-21T11:13:11.530Z,5.90
2018-07-21T11:15:40.657Z,6.10
2018-07-21T11:18:10.014Z,5.40
2018-07-21T11:20:39.378Z,5.43
2018-07-21T11:23:09.073Z,6.40
2018-07-21T11:25:38.865Z,6.47
2018-07-21T11:28:08.571Z,5.87
2018-07-21T11:30:37.626Z,5.93
2018-07-21T11:33:07.043Z,5.53
2018-07-21T11:35:36.542Z,5.50
2018-07-21T11:38:05.982Z,5.83
2018-07-21T11:40:35.027Z,6.23
2018-07-21T11:43:04.351Z,5.53
2018-07-21T11:45:33.790Z,6.30
2018-07-21T11:48:03.142Z,6.10
2018-07-21T11:50:32.762Z,5.90
2018-07-21T11:53:02.047Z,6.17
2018-07-21T11:55:32.275Z,5.40
2018-07-21T11:58:01.643Z,5.30
2018-07-21T12:00:31.080Z,5.73
2018-07-21T12:03:00.403Z,5.27
2018-07-21T12:05:29.748Z,5.53
2018-07-21T12:07:59.060Z,5.47
2018-07-21T12:10:28.361Z,6.00
2018-07-21T12:12:57.961Z,5.83
2018-07-21T12:15:27.313Z,5.70
2018-07-21T12:17:56.701Z,6.50
2018-07-21T12:20:26.177Z,6.40
2018-07-21T12:22:55.407Z,8.00
2018-07-21T12:25:24.920Z,10.93
2018-07-21T12:27:55.056Z,8.97
2018-07-21T12:30:24.489Z,5.80
2018-07-21T12:32:54.233Z,9.60
2018-07-21T12:35:23.729Z,6.70
2018-07-21T12:37:53.128Z,6.33
2018-07-21T12:40:22.537Z,6.63
2018-07-21T12:42:51.875Z,5.80
2018-07-21T12:45:21.183Z,8.80
2018-07-21T12:47:50.511Z,43.90
2018-07-21T12:50:19.840Z,16.17
2018-07-21T12:52:49.170Z,12.70
2018-07-21T12:55:18.474Z,12.00
2018-07-21T12:57:48.417Z,5.47
2018-07-21T13:00:17.786Z,10.60
2018-07-21T13:02:47.078Z,6.50
2018-07-21T13:05:18.147Z,6.33
2018-07-21T13:07:47.468Z,7.23
2018-07-21T13:10:16.738Z,6.30
2018-07-21T13:12:46.023Z,6.23
2018-07-21T13:15:15.643Z,5.40
2018-07-21T13:17:44.946Z,5.80
2018-07-21T13:20:14.631Z,6.00
2018-07-21T13:22:43.991Z,6.17
2018-07-21T13:25:13.332Z,5.60
2018-07-21T13:27:42.651Z,6.50
2018-07-21T13:30:11.991Z,6.10
2018-07-21T13:32:41.270Z,9.07
2018-07-21T13:35:11.067Z,6.83
2018-07-21T13:37:40.472Z,6.60
2018-07-21T13:40:10.547Z,6.50
2018-07-21T13:42:40.364Z,5.80
2018-07-21T13:45:09.742Z,6.67
2018-07-21T13:47:39.072Z,5.70
2018-07-21T13:50:08.590Z,6.47
2018-07-21T13:52:37.911Z,6.67
2018-07-21T13:55:07.606Z,7.10
2018-07-21T13:57:36.973Z,6.40
2018-07-21T14:00:07.000Z,7.07
2018-07-21T14:02:36.312Z,6.90
2018-07-21T14:05:05.754Z,6.40
2018-07-21T14:07:35.138Z,6.73
2018-07-21T14:10:04.581Z,7.00
2018-07-21T14:12:33.920Z,6.30
2018-07-21T14:15:03.175Z,7.30
2018-07-21T14:17:32.543Z,7.03
2018-07-21T14:20:03.108Z,7.00
2018-07-21T14:22:32.407Z,7.00
2018-07-21T14:25:01.761Z,7.50
2018-07-21T14:27:31.547Z,6.67
2018-07-21T14:30:00.977Z,6.97
2018-07-21T14:32:30.150Z,6.70
2018-07-21T14:34:59.756Z,7.00
2018-07-21T14:37:29.069Z,8.43
2018-07-21T14:39:58.401Z,7.03
2018-07-21T14:42:27.726Z,7.33
2018-07-21T14:44:57.068Z,7.20
2018-07-21T14:47:26.404Z,6.30
2018-07-21T14:49:56.204Z,6.80
2018-07-21T14:52:25.505Z,7.00
2018-07-21T14:54:54.921Z,7.60
2018-07-21T14:57:24.196Z,6.50
2018-07-21T14:59:53.502Z,7.47
2018-07-21T15:02:22.776Z,7.70
2018-07-21T15:04:52.144Z,7.83
2018-07-21T15:07:21.419Z,7.80
2018-07-21T15:09:50.779Z,7.70
2018-07-21T15:12:20.620Z,7.50
2018-07-21T15:14:49.968Z,7.43
2018-07-21T15:17:19.258Z,7.30
2018-07-21T15:19:48.589Z,7.10
2018-07-21T15:22:17.918Z,8.10
2018-07-21T15:24:47.251Z,7.40
2018-07-21T15:27:16.588Z,8.07
2018-07-21T15:29:45.876Z,7.67
2018-07-21T15:32:15.167Z,7.30
2018-07-21T15:34:44.843Z,8.17
2018-07-21T15:37:14.207Z,7.57
2018-07-21T15:39:43.517Z,7.20
2018-07-21T15:42:12.848Z,7.67
2018-07-21T15:44:41.891Z,7.50
2018-07-21T15:47:11.199Z,7.40
2018-07-21T15:49:40.562Z,8.37
2018-07-21T15:52:09.966Z,8.33
2018-07-21T15:54:39.312Z,8.57
2018-07-21T15:57:09.156Z,7.83
2018-07-21T15:59:38.558Z,8.60
2018-07-21T16:02:08.000Z,7.87
2018-07-21T16:04:37.327Z,8.33
2018-07-21T16:07:06.692Z,8.27
2018-07-21T16:09:36.104Z,9.20
2018-07-21T16:12:05.441Z,8.37
2018-07-21T16:14:34.848Z,8.80
2018-07-21T16:17:04.190Z,8.57
2018-07-21T16:19:33.716Z,8.30
2018-07-21T16:22:06.472Z,7.30
2018-07-21T16:24:36.745Z,7.20
2018-07-21T16:27:06.142Z,8.70
2018-07-21T16:29:35.508Z,8.57
2018-07-21T16:32:04.803Z,8.60
2018-07-21T16:34:34.208Z,10.07
2018-07-21T16:37:03.493Z,10.50
2018-07-21T16:39:33.408Z,13.73
2018-07-21T16:42:02.752Z,16.50
2018-07-21T16:44:32.122Z,11.40
2018-07-21T16:47:01.478Z,11.03
2018-07-21T16:49:30.798Z,9.90
2018-07-21T16:52:00.133Z,9.70
2018-07-21T16:54:29.574Z,8.50
2018-07-21T16:56:58.880Z,9.23
2018-07-21T16:59:28.254Z,8.70
2018-07-21T17:01:58.040Z,8.77
2018-07-21T17:04:27.403Z,9.40
2018-07-21T17:06:56.742Z,9.03
2018-07-21T17:09:26.282Z,7.90
2018-07-21T17:11:55.588Z,8.23
2018-07-21T17:14:24.973Z,7.17
2018-07-21T17:16:54.278Z,8.73
2018-07-21T17:19:23.586Z,8.13
2018-07-21T17:21:52.653Z,8.70
2018-07-21T17:24:22.380Z,7.20
2018-07-21T17:26:51.674Z,8.17
2018-07-21T17:29:21.136Z,8.20
2018-07-21T17:31:50.495Z,7.80
2018-07-21T17:34:19.795Z,8.13
2018-07-21T17:36:49.143Z,7.70
2018-07-21T17:39:18.570Z,7.47
2018-07-21T17:41:47.910Z,7.83
2018-07-21T17:44:17.297Z,7.83
2018-07-21T17:46:46.700Z,7.60
2018-07-21T17:49:16.053Z,8.17
2018-07-21T17:51:45.391Z,8.77
2018-07-21T17:54:14.777Z,8.67
2018-07-21T17:56:44.111Z,7.60
2018-07-21T17:59:13.396Z,7.93
2018-07-21T18:01:42.835Z,7.83
2018-07-21T18:04:12.170Z,8.03
2018-07-21T18:06:41.545Z,8.47
2018-07-21T18:09:12.125Z,8.07
2018-07-21T18:11:41.542Z,8.80
2018-07-21T18:14:11.022Z,8.83
2018-07-21T18:16:40.347Z,8.93
2018-07-21T18:19:09.666Z,8.00
2018-07-21T18:21:39.025Z,7.90
2018-07-21T18:24:08.519Z,9.13
2018-07-21T18:26:37.875Z,8.27
2018-07-21T18:29:07.819Z,8.07
2018-07-21T18:31:37.421Z,9.20
2018-07-21T18:34:07.193Z,9.00
2018-07-21T18:36:36.456Z,9.73
2018-07-21T18:39:09.592Z,9.70
2018-07-21T18:41:38.958Z,9.23
2018-07-21T18:44:08.758Z,9.37
2018-07-21T18:46:38.659Z,9.70
2018-07-21T18:49:07.935Z,10.47
2018-07-21T18:51:37.221Z,9.17
2018-07-21T18:54:06.638Z,9.20
2018-07-21T18:56:35.967Z,8.93
2018-07-21T18:59:05.319Z,9.23
2018-07-21T19:01:34.635Z,8.77
2018-07-21T19:04:03.984Z,9.27
2018-07-21T19:06:33.370Z,9.63
2018-07-21T19:09:05.703Z,9.97
2018-07-21T19:11:35.011Z,10.30
2018-07-21T19:14:04.292Z,9.50
2018-07-21T19:16:39.998Z,10.73
2018-07-21T19:19:09.481Z,9.53
2018-07-21T19:21:38.762Z,9.63
2018-07-21T19:24:08.584Z,10.27
2018-07-21T19:26:43.046Z,9.67
2018-07-21T19:29:13.013Z,10.83
2018-07-21T19:31:46.493Z,10.77
2018-07-21T19:34:15.816Z,10.77
2018-07-21T19:36:45.104Z,10.27
2018-07-21T19:39:14.405Z,10.30
2018-07-21T19:41:49.288Z,10.97
2018-07-21T19:44:18.555Z,10.67
2018-07-21T19:46:47.915Z,11.47
2018-07-21T19:49:17.345Z,11.73
2018-07-21T19:51:46.804Z,10.50
2018-07-21T19:54:16.167Z,10.70
2018-07-21T19:56:45.591Z,10.70
2018-07-21T19:59:14.898Z,10.90
2018-07-21T20:01:44.193Z,13.90
2018-07-21T20:04:13.647Z,10.97
2018-07-21T20:06:42.945Z,10.90
2018-07-21T20:09:12.224Z,11.60
2018-07-21T20:11:42.523Z,11.13
2018-07-21T20:14:11.829Z,11.10
2018-07-21T20:16:41.135Z,10.80
2018-07-21T20:19:10.532Z,11.07
2018-07-21T20:21:39.810Z,11.17
2018-07-21T20:24:09.159Z,11.97
2018-07-21T20:26:38.909Z,11.77
2018-07-21T20:29:08.212Z,11.43
2018-07-21T20:31:38.014Z,10.40
2018-07-21T20:34:07.384Z,11.33
2018-07-21T20:36:36.673Z,11.57
2018-07-21T20:39:09.374Z,10.57
2018-07-21T20:41:38.992Z,11.70
2018-07-21T20:44:08.387Z,11.27
2018-07-21T20:46:38.262Z,11.90
2018-07-21T20:49:07.627Z,11.20
2018-07-21T20:51:36.943Z,12.80
2018-07-21T20:54:06.305Z,12.13
2018-07-21T20:56:35.551Z,12.30
2018-07-21T20:59:04.932Z,12.80
2018-07-21T21:01:34.281Z,12.10
2018-07-21T21:04:03.611Z,12.67
2018-07-21T21:06:32.979Z,12.03
2018-07-21T21:09:02.412Z,12.60
2018-07-21T21:11:31.791Z,12.27
2018-07-21T21:14:01.127Z,10.83
2018-07-21T21:16:30.500Z,10.87
2018-07-21T21:18:59.807Z,10.10
2018-07-21T21:21:29.111Z,10.07
2018-07-21T21:23:59.414Z,10.90
2018-07-21T21:26:28.750Z,10.30
2018-07-21T21:28:58.124Z,10.27
2018-07-21T21:31:27.891Z,10.03
2018-07-21T21:33:57.352Z,10.60
2018-07-21T21:36:26.728Z,9.83
2018-07-21T21:38:56.053Z,10.77
2018-07-21T21:41:25.380Z,10.20
2018-07-21T21:43:54.695Z,10.10
2018-07-21T21:46:24.007Z,10.30
2018-07-21T21:48:53.467Z,9.70
2018-07-21T21:51:22.848Z,9.40
2018-07-21T21:53:52.496Z,9.53
2018-07-21T21:56:21.792Z,10.87
2018-07-21T21:58:51.158Z,10.67
2018-07-21T22:01:20.481Z,10.47
2018-07-21T22:03:49.930Z,11.40
2018-07-21T22:06:19.240Z,10.90
2018-07-21T22:08:48.574Z,9.90
2018-07-21T22:11:17.866Z,9.30
2018-07-21T22:13:47.211Z,9.70
2018-07-21T22:16:17.013Z,10.53
2018-07-21T22:18:46.303Z,9.50
2018-07-21T22:21:15.591Z,9.53
2018-07-21T22:23:45.002Z,10.03
2018-07-21T22:26:14.290Z,10.90
2018-07-21T22:28:43.613Z,9.50
2018-07-21T22:31:12.995Z,10.70
2018-07-21T22:33:42.305Z,9.47
2018-07-21T22:36:11.710Z,9.77
2018-07-21T22:38:41.755Z,10.57
2018-07-21T22:41:11.086Z,9.63
2018-07-21T22:43:40.601Z,9.27
2018-07-21T22:46:09.963Z,10.80
2018-07-21T22:48:39.263Z,9.90
2018-07-21T22:51:08.602Z,10.20
2018-07-21T22:53:37.957Z,9.37
2018-07-21T22:56:07.297Z,10.20
2018-07-21T22:58:36.707Z,10.20
2018-07-21T23:01:06.335Z,9.67
2018-07-21T23:03:35.644Z,9.40
2018-07-21T23:06:05.064Z,10.27
2018-07-21T23:08:34.448Z,10.93
2018-07-21T23:11:03.708Z,10.40
2018-07-21T23:13:32.979Z,11.80
2018-07-21T23:16:02.369Z,10.23
2018-07-21T23:18:31.676Z,10.50
2018-07-21T23:21:00.938Z,10.20
2018-07-21T23:23:30.540Z,10.33
2018-07-21T23:25:59.893Z,10.30
2018-07-21T23:28:29.225Z,9.53
2018-07-21T23:30:58.599Z,9.60
2018-07-21T23:33:27.907Z,10.80
2018-07-21T23:35:57.290Z,9.70
2018-07-21T23:38:26.964Z,11.37
2018-07-21T23:40:56.296Z,10.93
2018-07-21T23:43:25.576Z,9.77
2018-07-21T23:45:55.176Z,9.97
2018-07-21T23:48:24.455Z,9.67
2018-07-21T23:50:53.755Z,9.90
2018-07-21T23:53:23.090Z,10.43
2018-07-21T23:55:52.433Z,11.73
2018-07-21T23:58:21.802Z,10.87
